Time;durP1;ratioP1;P1;durP2;ratioP2;P2;SDS_P1;SDS_P2;PMS_P1;PMS_P2;Temp;Humidity;BMP_temperature;BMP_pressure;BME280_temperature;BME280_humidity;BME280_pressure;Samples;Min_cycle;Max_cycle;Signal;HPM_P1;HPM_P2
2022/09/17 00:01:47;;;;;;;0.03;0.03;;;;;;;10.76;100.00;99453.88;5051667;28;20179;-77
2022/09/17 00:04:12;;;;;;;5.20;0.53;;;;;;;10.76;100.00;99456.63;5033660;28;20609;-77
2022/09/17 00:06:37;;;;;;;0.17;0.17;;;;;;;10.75;100.00;99455.03;5051374;28;20697;-77
2022/09/17 00:09:07;;;;;;;0.10;0.10;;;;;;;10.73;100.00;99449.91;5051614;28;20697;-77
2022/09/17 00:11:34;;;;;;;0.00;0.00;;;;;;;10.73;100.00;99455.34;5051500;28;20259;-76
2022/09/17 00:14:02;;;;;;;0.00;0.00;;;;;;;10.73;100.00;99460.81;5051291;28;20293;-76
2022/09/17 00:16:35;;;;;;;0.00;0.00;;;;;;;10.74;100.00;99462.41;5068405;28;20178;-77
2022/09/17 00:19:01;;;;;;;0.30;0.10;;;;;;;10.75;100.00;99466.75;5071360;28;20606;-76
2022/09/17 00:21:27;;;;;;;0.30;0.17;;;;;;;10.75;100.00;99469.47;5071180;28;20544;-77
2022/09/17 00:23:56;;;;;;;0.00;0.00;;;;;;;10.79;100.00;99464.94;5071353;28;20186;-77
2022/09/17 00:26:21;;;;;;;3.33;0.67;;;;;;;10.80;100.00;99473.91;5053048;28;20178;-76
2022/09/17 00:28:54;;;;;;;2.80;1.60;;;;;;;10.79;100.00;99467.66;5071059;28;20182;-76
2022/09/17 00:31:21;;;;;;;0.53;0.13;;;;;;;10.83;100.00;99481.44;5071218;28;20177;-77
2022/09/17 00:33:47;;;;;;;0.17;0.17;;;;;;;10.81;100.00;99467.31;5070226;28;20198;-77
2022/09/17 00:36:13;;;;;;;1.40;1.30;;;;;;;10.83;100.00;99478.72;5070961;28;20813;-76
2022/09/17 00:38:38;;;;;;;9.07;0.83;;;;;;;10.81;100.00;99481.78;5070927;28;20296;-76
2022/09/17 00:41:06;;;;;;;6.77;1.27;;;;;;;10.83;100.00;99473.25;5052872;28;20174;-77
2022/09/17 00:43:39;;;;;;;11.60;0.47;;;;;;;10.83;100.00;99481.44;5070974;28;20665;-78
2022/09/17 00:46:15;;;;;;;1.17;0.73;;;;;;;10.83;100.00;99479.50;5070578;28;20175;-76
2022/09/17 00:48:40;;;;;;;1.03;0.93;;;;;;;10.83;100.00;99484.16;5070772;28;20166;-77
2022/09/17 00:51:09;;;;;;;0.00;0.00;;;;;;;10.82;100.00;99490.78;5070650;28;20248;-77
2022/09/17 00:53:35;;;;;;;0.60;0.60;;;;;;;10.78;100.00;99484.38;5070762;28;20194;-76
2022/09/17 00:56:03;;;;;;;10.97;1.73;;;;;;;10.77;100.00;99488.25;5070977;28;20759;-77
2022/09/17 00:58:31;;;;;;;13.67;2.43;;;;;;;10.76;100.00;99486.66;5070768;28;20174;-77
2022/09/17 01:00:57;;;;;;;1.77;0.50;;;;;;;10.74;100.00;99487.00;5070840;28;20174;-76
2022/09/17 01:03:22;;;;;;;9.73;1.40;;;;;;;10.74;100.00;99492.47;5070327;28;20308;-77
2022/09/17 01:05:56;;;;;;;4.87;1.43;;;;;;;10.76;100.00;99492.94;5070724;28;20253;-76
2022/09/17 01:08:37;;;;;;;6.23;0.80;;;;;;;10.75;100.00;99490.53;5070709;28;20173;-76
2022/09/17 01:11:24;;;;;;;2.20;1.10;;;;;;;10.76;100.00;99500.31;5070766;28;20162;-75
2022/09/17 01:13:58;;;;;;;0.70;0.70;;;;;;;10.76;100.00;99501.13;5052603;28;20210;-75
2022/09/17 01:16:31;;;;;;;7.20;0.73;;;;;;;10.75;100.00;99501.47;5070593;28;20232;-76
2022/09/17 01:19:51;;;;;;;1.10;0.67;;;;;;;10.72;100.00;99501.00;5052739;28;20173;-76
2022/09/17 01:22:38;;;;;;;0.10;0.10;;;;;;;10.71;100.00;99501.34;4988724;28;20185;-76
2022/09/17 01:25:09;;;;;;;0.17;0.17;;;;;;;10.73;100.00;99499.88;5048798;28;20182;-76
2022/09/17 01:27:46;;;;;;;0.80;0.20;;;;;;;10.69;100.00;99512.56;5070325;28;20177;-76
2022/09/17 01:30:14;;;;;;;0.00;0.00;;;;;;;10.68;100.00;99510.97;5070582;28;20185;-76
2022/09/17 01:32:48;;;;;;;0.00;0.00;;;;;;;10.66;100.00;99509.72;5052394;28;20190;-76
2022/09/17 01:35:26;;;;;;;1.00;0.87;;;;;;;10.64;100.00;99501.88;5052514;28;20178;-76
2022/09/17 01:38:10;;;;;;;0.70;0.70;;;;;;;10.60;100.00;99505.59;5070073;28;20162;-76
2022/09/17 01:40:46;;;;;;;3.20;0.80;;;;;;;10.59;100.00;99515.75;5070468;28;20173;-76
2022/09/17 01:43:35;;;;;;;0.40;0.40;;;;;;;10.57;100.00;99518.00;5070313;28;20174;-76
2022/09/17 01:46:10;;;;;;;0.10;0.10;;;;;;;10.57;100.00;99520.75;5074379;28;20250;-76
2022/09/17 01:48:43;;;;;;;1.17;0.20;;;;;;;10.58;100.00;99519.59;5074308;28;20215;-76
2022/09/17 01:51:13;;;;;;;1.37;0.77;;;;;;;10.60;100.00;99528.25;5073768;28;20163;-75
2022/09/17 01:53:57;;;;;;;0.60;0.33;;;;;;;10.62;100.00;99527.94;5036018;28;20218;-75
2022/09/17 01:56:29;;;;;;;1.60;1.13;;;;;;;10.61;100.00;99531.78;5054272;28;20179;-75
2022/09/17 01:59:20;;;;;;;0.00;0.00;;;;;;;10.57;100.00;99533.59;5036227;28;20358;-76
2022/09/17 02:01:50;;;;;;;0.30;0.30;;;;;;;10.57;100.00;99530.88;5053690;28;20210;-76
2022/09/17 02:04:30;;;;;;;1.93;1.00;;;;;;;10.57;100.00;99539.06;5054033;28;20171;-76
2022/09/17 02:07:02;;;;;;;0.67;0.40;;;;;;;10.56;100.00;99542.91;5053835;28;20167;-76
2022/09/17 02:09:35;;;;;;;0.20;0.20;;;;;;;10.56;100.00;99543.72;5053789;28;20189;-75
2022/09/17 02:12:05;;;;;;;0.33;0.23;;;;;;;10.55;100.00;99533.91;5053673;28;20642;-75
2022/09/17 02:14:38;;;;;;;5.23;1.10;;;;;;;10.53;100.00;99529.91;5053700;28;20650;-76
2022/09/17 02:17:25;;;;;;;13.43;1.30;;;;;;;10.57;100.00;99537.13;5053740;28;20183;-75
2022/09/17 02:19:53;;;;;;;0.00;0.00;;;;;;;10.60;100.00;99543.84;5035922;28;20179;-76
2022/09/17 02:22:24;;;;;;;9.20;1.03;;;;;;;10.60;100.00;99536.44;5035720;28;20655;-76
2022/09/17 02:24:56;;;;;;;7.10;2.00;;;;;;;10.61;100.00;99539.97;5053775;28;20250;-76
2022/09/17 02:27:32;;;;;;;0.30;0.27;;;;;;;10.60;100.00;99549.31;5051933;28;20626;-76
2022/09/17 02:29:58;;;;;;;0.30;0.30;;;;;;;10.61;100.00;99538.06;5053521;28;20171;-76
2022/09/17 02:32:23;;;;;;;3.90;1.63;;;;;;;10.62;100.00;99547.84;5053391;28;20167;-76
2022/09/17 02:34:49;;;;;;;1.70;0.73;;;;;;;10.65;100.00;99555.38;5035520;28;20272;-76
2022/09/17 02:37:15;;;;;;;0.83;0.40;;;;;;;10.66;100.00;99553.44;5053207;28;20179;-76
2022/09/17 02:39:41;;;;;;;1.33;0.63;;;;;;;10.67;100.00;99552.28;5052386;28;20182;-76
2022/09/17 02:42:19;;;;;;;4.57;1.30;;;;;;;10.71;100.00;99562.25;5053209;28;20598;-75
2022/09/17 02:45:06;;;;;;;0.57;0.57;;;;;;;10.77;100.00;99564.75;5053347;28;20159;-76
2022/09/17 02:48:06;;;;;;;1.70;1.33;;;;;;;10.79;100.00;99565.22;5052712;28;20198;-76
2022/09/17 02:50:50;;;;;;;0.83;0.70;;;;;;;10.81;100.00;99565.69;5051858;28;20183;-76
2022/09/17 02:53:34;;;;;;;0.43;0.20;;;;;;;10.83;100.00;99580.59;5053416;28;20620;-76
2022/09/17 02:56:16;;;;;;;0.60;0.47;;;;;;;10.84;100.00;99579.47;5050610;28;20183;-76
2022/09/17 02:59:02;;;;;;;0.00;0.00;;;;;;;10.87;100.00;99581.56;5053297;28;20186;-76
2022/09/17 03:01:36;;;;;;;0.33;0.33;;;;;;;10.87;100.00;99573.34;5051328;28;20587;-76
2022/09/17 03:04:06;;;;;;;0.60;0.30;;;;;;;10.86;100.00;99574.50;5035003;28;20206;-76
2022/09/17 03:06:31;;;;;;;0.57;0.53;;;;;;;10.84;100.00;99581.41;5052636;28;20175;-76
2022/09/17 03:08:56;;;;;;;4.27;0.97;;;;;;;10.79;100.00;99568.75;5052959;28;20186;-76
2022/09/17 03:11:23;;;;;;;0.63;0.63;;;;;;;10.81;100.00;99576.63;5052966;28;20182;-75
2022/09/17 03:13:48;;;;;;;0.00;0.00;;;;;;;10.80;100.00;99581.28;5052642;28;20262;-76
2022/09/17 03:16:14;;;;;;;9.17;2.13;;;;;;;10.75;100.00;99577.97;5052322;28;20561;-76
2022/09/17 03:18:39;;;;;;;11.83;0.70;;;;;;;10.73;100.00;99579.09;5052705;28;20203;-76
2022/09/17 03:21:04;;;;;;;1.07;0.97;;;;;;;10.70;100.00;99582.50;5052482;28;20580;-76
2022/09/17 03:23:31;;;;;;;15.67;1.87;;;;;;;10.64;100.00;99578.34;5052472;28;20183;-77
2022/09/17 03:25:58;;;;;;;0.33;0.33;;;;;;;10.58;100.00;99582.44;5069191;28;20178;-76
2022/09/17 03:28:25;;;;;;;0.20;0.20;;;;;;;10.52;100.00;99581.00;5072324;28;20633;-76
2022/09/17 03:30:51;;;;;;;10.30;1.57;;;;;;;10.49;100.00;99583.59;5071026;28;20657;-76
2022/09/17 03:33:16;;;;;;;1.60;1.13;;;;;;;10.45;100.00;99579.94;5072287;28;20202;-77
2022/09/17 03:35:43;;;;;;;4.90;0.87;;;;;;;10.41;100.00;99586.06;5072230;28;20178;-76
2022/09/17 03:38:08;;;;;;;1.70;1.60;;;;;;;10.37;100.00;99584.31;5054251;28;20178;-76
2022/09/17 03:40:34;;;;;;;1.80;1.70;;;;;;;10.31;100.00;99586.44;5072166;28;20651;-76
2022/09/17 03:42:59;;;;;;;3.77;0.70;;;;;;;10.29;100.00;99590.66;5072470;28;20270;-77
2022/09/17 03:45:24;;;;;;;9.53;0.47;;;;;;;10.25;100.00;99584.22;5072162;28;20204;-75
2022/09/17 03:47:49;;;;;;;0.57;0.57;;;;;;;10.22;100.00;99595.81;5071601;28;20201;-76
2022/09/17 03:50:15;;;;;;;2.10;0.90;;;;;;;10.18;100.00;99592.91;5072054;28;20198;-76
2022/09/17 03:52:42;;;;;;;0.20;0.20;;;;;;;10.15;100.00;99599.03;5071927;28;20171;-76
2022/09/17 03:55:07;;;;;;;1.40;1.03;;;;;;;10.10;100.00;99600.00;5071827;28;20194;-76
2022/09/17 03:57:33;;;;;;;0.67;0.57;;;;;;;10.08;100.00;99601.47;5071480;28;20190;-77
2022/09/17 03:59:58;;;;;;;1.10;0.53;;;;;;;10.05;100.00;99594.75;5071976;28;20229;-76
2022/09/17 04:02:23;;;;;;;10.10;1.33;;;;;;;10.06;100.00;99604.53;5070112;28;20179;-76
2022/09/17 04:04:52;;;;;;;7.13;2.73;;;;;;;10.06;100.00;99601.00;5071839;28;20178;-76
2022/09/17 04:07:18;;;;;;;1.70;0.30;;;;;;;10.02;100.00;99606.31;5071227;28;20564;-76
2022/09/17 04:09:43;;;;;;;4.30;0.80;;;;;;;9.99;100.00;99609.72;5071530;28;20181;-76
2022/09/17 04:12:09;;;;;;;14.53;2.93;;;;;;;9.98;100.00;99610.84;5071568;28;20179;-76
2022/09/17 04:14:34;;;;;;;0.10;0.10;;;;;;;10.01;100.00;99609.38;5071460;28;20728;-78
2022/09/17 04:16:59;;;;;;;3.17;2.00;;;;;;;10.02;100.00;99609.06;5071209;28;20175;-79
2022/09/17 04:19:25;;;;;;;6.87;1.17;;;;;;;10.00;100.00;99621.44;5070016;28;20175;-78
2022/09/17 04:21:50;;;;;;;4.63;1.20;;;;;;;9.98;100.00;99612.75;5071611;28;20185;-76
2022/09/17 04:24:15;;;;;;;10.63;1.70;;;;;;;9.96;100.00;99618.53;5071225;28;20227;-78
2022/09/17 04:26:40;;;;;;;1.60;0.70;;;;;;;9.93;100.00;99613.75;5053150;28;20788;-78
2022/09/17 04:29:06;;;;;;;0.03;0.03;;;;;;;9.91;100.00;99621.44;5071233;28;20182;-78
2022/09/17 04:31:31;;;;;;;1.07;0.70;;;;;;;9.94;100.00;99618.06;5071252;28;20236;-78
2022/09/17 04:33:56;;;;;;;1.23;1.23;;;;;;;9.95;100.00;99625.13;5070866;28;20251;-78
2022/09/17 04:36:22;;;;;;;2.30;1.43;;;;;;;9.94;100.00;99620.78;5071066;28;20240;-78
2022/09/17 04:38:47;;;;;;;6.13;1.07;;;;;;;9.98;100.00;99629.13;5070947;28;20648;-77
2022/09/17 04:41:13;;;;;;;0.80;0.33;;;;;;;9.99;100.00;99628.81;5071139;28;20234;-77
2022/09/17 04:43:38;;;;;;;10.50;1.17;;;;;;;9.94;100.00;99631.72;5071073;28;20239;-77
2022/09/17 04:46:04;;;;;;;4.37;1.27;;;;;;;9.89;100.00;99629.16;5070507;28;20175;-77
2022/09/17 04:48:29;;;;;;;1.03;0.97;;;;;;;9.89;100.00;99637.34;5070922;28;20174;-78
2022/09/17 04:50:54;;;;;;;1.13;0.40;;;;;;;9.93;100.00;99640.22;5070892;28;20175;-77
2022/09/17 04:53:20;;;;;;;0.30;0.30;;;;;;;9.96;100.00;99634.91;5070951;28;20277;-77
2022/09/17 04:55:45;;;;;;;13.30;2.03;;;;;;;9.99;100.00;99638.94;5070624;28;20174;-77
2022/09/17 04:58:10;;;;;;;0.47;0.37;;;;;;;9.99;100.00;99636.19;5063987;28;20198;-77
2022/09/17 05:00:36;;;;;;;4.33;0.70;;;;;;;9.99;100.00;99642.47;5050783;28;20179;-77
2022/09/17 05:03:02;;;;;;;0.83;0.83;;;;;;;10.00;100.00;99641.34;5051258;28;20179;-77
2022/09/17 05:05:28;;;;;;;5.00;1.93;;;;;;;10.03;100.00;99640.66;5036129;28;20634;-77
2022/09/17 05:07:53;;;;;;;1.97;1.80;;;;;;;10.05;100.00;99652.06;5058221;28;20186;-77
2022/09/17 05:10:21;;;;;;;1.40;1.30;;;;;;;10.07;100.00;99657.19;5055525;28;20185;-77
2022/09/17 05:12:51;;;;;;;5.10;1.20;;;;;;;10.08;100.00;99659.59;5049913;28;20187;-77
2022/09/17 05:15:17;;;;;;;2.47;1.00;;;;;;;10.10;100.00;99660.06;5050899;28;20245;-77
2022/09/17 05:17:42;;;;;;;9.27;0.67;;;;;;;10.13;100.00;99673.06;5050673;28;20168;-77
2022/09/17 05:20:08;;;;;;;7.87;0.83;;;;;;;10.15;100.00;99664.56;5055459;28;20189;-77
2022/09/17 05:22:33;;;;;;;7.43;2.20;;;;;;;10.13;100.00;99656.69;5057308;28;20696;-77
2022/09/17 05:24:59;;;;;;;0.40;0.40;;;;;;;10.11;100.00;99667.09;5057354;28;20179;-77
2022/09/17 05:27:24;;;;;;;0.60;0.60;;;;;;;10.13;100.00;99667.59;5057215;28;20205;-77
2022/09/17 05:29:49;;;;;;;0.10;0.03;;;;;;;10.13;100.00;99672.28;5057130;28;20202;-77
2022/09/17 05:32:15;;;;;;;0.00;0.00;;;;;;;10.08;100.00;99665.03;5057260;28;20258;-77
2022/09/17 05:34:40;;;;;;;0.63;0.43;;;;;;;10.08;100.00;99672.44;5039144;28;20248;-77
2022/09/17 05:37:08;;;;;;;1.13;0.73;;;;;;;10.06;100.00;99675.50;5056981;28;20567;-77
2022/09/17 05:39:33;;;;;;;2.30;0.43;;;;;;;10.04;100.00;99672.28;5057033;28;20182;-77
2022/09/17 05:41:58;;;;;;;7.00;2.33;;;;;;;10.03;100.00;99673.41;5057287;28;20182;-77
2022/09/17 05:44:24;;;;;;;1.37;1.20;;;;;;;10.03;100.00;99672.63;5057984;28;20179;-76
2022/09/17 05:46:52;;;;;;;4.00;1.17;;;;;;;10.04;100.00;99679.69;5066573;28;20269;-76
2022/09/17 05:49:17;;;;;;;7.37;1.17;;;;;;;10.05;100.00;99694.91;5066953;28;20515;-77
2022/09/17 05:51:43;;;;;;;1.13;1.13;;;;;;;10.07;100.00;99696.19;5056900;28;20177;-77
2022/09/17 05:54:08;;;;;;;3.90;0.90;;;;;;;10.08;100.00;99692.34;5056895;28;20201;-77
2022/09/17 05:56:34;;;;;;;5.83;0.83;;;;;;;10.10;100.00;99695.53;5056790;28;20178;-75
2022/09/17 05:58:59;;;;;;;4.23;0.57;;;;;;;10.16;100.00;99689.91;5056828;28;20649;-76
2022/09/17 06:01:25;;;;;;;0.20;0.20;;;;;;;10.17;100.00;99702.44;5056916;28;20175;-75
2022/09/17 06:03:52;;;;;;;2.63;1.03;;;;;;;10.18;100.00;99691.19;5057191;28;20297;-75
2022/09/17 06:06:17;;;;;;;0.00;0.00;;;;;;;10.19;100.00;99697.44;5056873;28;20233;-76
2022/09/17 06:08:43;;;;;;;7.37;1.33;;;;;;;10.23;100.00;99703.88;5056744;28;20175;-76
2022/09/17 06:11:08;;;;;;;7.97;0.57;;;;;;;10.22;100.00;99699.53;5056710;28;20183;-75
2022/09/17 06:13:34;;;;;;;0.10;0.10;;;;;;;10.23;100.00;99706.59;5058518;28;20580;-76
2022/09/17 06:16:01;;;;;;;1.10;0.73;;;;;;;10.23;100.00;99706.59;5055485;28;20187;-75
2022/09/17 06:18:28;;;;;;;2.87;0.73;;;;;;;10.21;100.00;99696.00;5054454;28;20193;-75
2022/09/17 06:21:04;;;;;;;1.03;0.13;;;;;;;10.20;100.00;99697.13;5051354;28;20186;-77
2022/09/17 06:23:36;;;;;;;4.77;1.60;;;;;;;10.19;100.00;99705.63;5055583;28;20626;-77
2022/09/17 06:26:03;;;;;;;3.70;1.27;;;;;;;10.17;100.00;99707.91;5056408;28;20619;-76
2022/09/17 06:28:28;;;;;;;14.03;4.07;;;;;;;10.14;100.00;99712.88;5056394;28;20202;-76
2022/09/17 06:30:56;;;;;;;10.10;1.90;;;;;;;10.10;100.00;99706.44;5036228;28;20265;-77
2022/09/17 06:33:22;;;;;;;1.27;1.13;;;;;;;10.09;100.00;99712.25;5053336;28;20195;-77
2022/09/17 06:35:48;;;;;;;0.77;0.30;;;;;;;10.08;100.00;99718.81;5053245;28;20206;-77
2022/09/17 06:38:14;;;;;;;0.70;0.70;;;;;;;10.06;100.00;99719.16;5053442;28;20175;-77
2022/09/17 06:40:40;;;;;;;1.70;1.10;;;;;;;10.03;99.73;99717.09;5053263;28;20578;-76
2022/09/17 06:43:05;;;;;;;28.20;1.93;;;;;;;10.03;99.52;99716.28;5053111;28;20176;-76
2022/09/17 06:45:30;;;;;;;6.27;1.77;;;;;;;10.03;99.50;99722.53;5056614;28;20180;-76
2022/09/17 06:47:56;;;;;;;13.47;3.10;;;;;;;10.09;99.33;99723.16;5072750;28;20214;-77
2022/09/17 06:50:22;;;;;;;1.23;1.23;;;;;;;10.18;99.99;99717.69;5073012;28;20193;-76
2022/09/17 06:52:52;;;;;;;1.13;0.67;;;;;;;10.24;98.89;99719.94;5073140;28;20174;-77
2022/09/17 06:55:17;;;;;;;10.63;2.10;;;;;;;10.34;98.21;99721.50;5072831;28;20214;-77
2022/09/17 06:57:43;;;;;;;1.40;0.53;;;;;;;10.43;97.15;99733.19;5072698;28;20174;-77
2022/09/17 07:00:09;;;;;;;10.70;1.03;;;;;;;10.49;96.56;99722.88;5055242;28;20187;-76
2022/09/17 07:02:34;;;;;;;1.40;0.90;;;;;;;10.53;95.77;99726.56;5059099;28;20179;-77
2022/09/17 07:05:00;;;;;;;5.23;0.57;;;;;;;10.53;94.59;99719.16;5052598;28;20696;-77
2022/09/17 07:07:26;;;;;;;9.00;0.60;;;;;;;10.59;95.18;99723.31;5052644;28;20175;-77
2022/09/17 07:09:52;;;;;;;4.43;0.73;;;;;;;10.67;95.76;99722.47;5052599;28;20262;-77
2022/09/17 07:12:18;;;;;;;24.03;1.53;;;;;;;10.78;95.14;99733.81;5034864;28;20179;-80
2022/09/17 07:14:43;;;;;;;3.03;0.50;;;;;;;10.80;94.90;99733.50;5052477;28;20684;-74
2022/09/17 07:17:09;;;;;;;3.30;1.07;;;;;;;10.86;95.52;99729.47;5052314;28;20176;-74
2022/09/17 07:19:34;;;;;;;2.27;1.03;;;;;;;10.79;94.90;99729.97;5052507;28;20179;-74
2022/09/17 07:21:59;;;;;;;16.73;1.40;;;;;;;10.72;94.89;99732.44;5052479;28;20240;-73
2022/09/17 07:24:25;;;;;;;0.00;0.00;;;;;;;10.73;95.39;99729.34;5052307;28;20249;-74
2022/09/17 07:26:50;;;;;;;1.53;1.43;;;;;;;10.87;95.85;99726.38;5060191;28;20175;-74
2022/09/17 07:29:16;;;;;;;1.27;0.77;;;;;;;10.89;95.20;99724.13;5072436;28;20175;-74
2022/09/17 07:31:42;;;;;;;11.67;1.27;;;;;;;10.99;96.06;99731.94;5072351;28;20182;-73
2022/09/17 07:34:09;;;;;;;19.13;1.47;;;;;;;11.11;96.30;99730.41;5072194;28;20206;-74
2022/09/17 07:36:34;;;;;;;0.90;0.80;;;;;;;11.08;94.58;99731.88;5072001;28;20170;-75
2022/09/17 07:39:00;;;;;;;2.70;1.07;;;;;;;11.07;93.65;99726.75;5071867;28;20646;-74
2022/09/17 07:41:25;;;;;;;4.23;2.00;;;;;;;11.07;93.59;99726.75;5071864;28;20227;-74
2022/09/17 07:43:53;;;;;;;9.73;0.57;;;;;;;11.11;93.91;99727.66;5071680;28;20200;-74
2022/09/17 07:46:19;;;;;;;2.33;0.83;;;;;;;11.26;92.67;99727.06;5071485;28;20179;-74
2022/09/17 07:48:46;;;;;;;24.30;1.23;;;;;;;11.27;90.56;99729.47;5053817;28;20274;-74
2022/09/17 07:51:20;;;;;;;14.07;0.83;;;;;;;11.40;90.25;99726.81;5072108;28;20194;-75
2022/09/17 07:53:46;;;;;;;0.57;0.47;;;;;;;11.46;89.46;99733.69;5071601;28;20205;-74
2022/09/17 07:56:12;;;;;;;6.80;0.77;;;;;;;11.51;86.58;99730.75;5053677;28;20262;-74
2022/09/17 07:58:38;;;;;;;1.33;1.23;;;;;;;11.56;85.67;99725.06;5071632;28;20545;-74
2022/09/17 08:01:08;;;;;;;2.00;0.57;;;;;;;11.57;84.91;99727.47;5071642;28;20306;-75
2022/09/17 08:03:34;;;;;;;2.07;0.77;;;;;;;11.57;84.01;99726.66;5071221;28;20679;-74
2022/09/17 08:06:07;;;;;;;7.57;0.80;;;;;;;11.71;85.22;99716.22;5071316;28;20607;-74
2022/09/17 08:08:34;;;;;;;0.37;0.20;;;;;;;11.80;86.14;99730.66;5071376;28;20171;-74
2022/09/17 08:11:08;;;;;;;4.20;1.20;;;;;;;11.95;86.64;99726.50;5071647;28;20170;-75
2022/09/17 08:13:34;;;;;;;3.70;0.70;;;;;;;11.97;84.62;99720.66;5071316;28;20599;-74
2022/09/17 08:16:02;;;;;;;3.13;0.50;;;;;;;12.04;83.64;99727.22;5071004;28;20175;-74
2022/09/17 08:18:28;;;;;;;0.00;0.00;;;;;;;12.19;83.08;99714.81;5069700;28;20197;-74
2022/09/17 08:20:58;;;;;;;9.90;1.57;;;;;;;12.21;81.21;99709.78;5051214;28;20708;-74
2022/09/17 08:23:24;;;;;;;1.50;1.40;;;;;;;12.31;81.47;99717.56;5051215;28;20186;-74
2022/09/17 08:25:58;;;;;;;0.57;0.57;;;;;;;12.35;80.33;99709.47;5050852;28;20545;-74
2022/09/17 08:28:25;;;;;;;1.93;0.70;;;;;;;12.42;79.93;99710.47;5050906;28;20262;-74
2022/09/17 08:30:51;;;;;;;6.30;1.20;;;;;;;12.46;79.63;99703.19;5050777;28;20171;-74
2022/09/17 08:33:17;;;;;;;34.17;1.77;;;;;;;12.56;79.89;99703.84;5051084;28;20662;-74
2022/09/17 08:35:53;;;;;;;4.63;0.77;;;;;;;12.74;79.88;99714.25;5050814;28;20197;-74
2022/09/17 08:38:19;;;;;;;2.80;0.87;;;;;;;12.68;78.13;99704.66;5050966;28;20175;-77
2022/09/17 08:41:06;;;;;;;1.77;0.37;;;;;;;12.91;78.53;99717.91;5050882;28;20174;-82
2022/09/17 08:43:55;;;;;;;2.50;0.77;;;;;;;12.75;75.91;99706.84;5050869;28;20186;-83
2022/09/17 08:46:21;;;;;;;0.20;0.20;;;;;;;12.61;77.08;99711.88;5050496;28;20650;-80
2022/09/17 08:49:14;;;;;;;1.70;0.43;;;;;;;12.61;76.56;99720.09;5050701;28;20199;-81
2022/09/17 08:52:11;;;;;;;13.33;1.33;;;;;;;12.70;76.31;99721.56;5050870;28;20563;-85
2022/09/17 08:54:43;;;;;;;1.03;0.33;;;;;;;12.47;76.29;99725.91;5042953;28;20223;-80
2022/09/17 08:57:11;;;;;;;0.00;0.00;;;;;;;12.34;77.23;99721.56;5058362;28;20171;-80
2022/09/17 08:59:45;;;;;;;2.37;0.97;;;;;;;12.47;78.10;99721.22;5066212;28;20211;-79
2022/09/17 09:02:48;;;;;;;4.10;1.10;;;;;;;12.64;76.45;99722.94;5048823;28;20182;-84
2022/09/17 09:05:21;;;;;;;5.53;0.57;;;;;;;12.81;76.41;99730.13;5049146;28;20699;-80
2022/09/17 09:07:51;;;;;;;15.27;0.70;;;;;;;13.00;75.66;99722.09;5050359;28;20224;-79
2022/09/17 09:10:21;;;;;;;1.73;0.40;;;;;;;12.97;74.23;99709.09;5049174;28;20261;-78
2022/09/17 09:12:48;;;;;;;4.33;0.73;;;;;;;12.80;73.99;99720.31;5050529;28;20167;-79
2022/09/17 09:15:43;;;;;;;0.10;0.10;;;;;;;12.86;74.89;99713.44;5050356;28;20702;-75
2022/09/17 09:18:18;;;;;;;5.83;0.87;;;;;;;12.90;74.47;99702.59;5050722;28;20175;-78
2022/09/17 09:21:11;;;;;;;1.33;0.83;;;;;;;12.75;73.98;99717.81;5051308;28;20204;-78
2022/09/17 09:24:00;;;;;;;1.47;0.20;;;;;;;12.69;74.35;99711.72;5054027;28;20180;-78
2022/09/17 09:26:52;;;;;;;2.63;0.97;;;;;;;12.59;74.53;99703.19;5014047;28;20184;-77
2022/09/17 09:29:56;;;;;;;0.20;0.20;;;;;;;12.64;73.48;99708.44;5032090;28;20184;-76
2022/09/17 09:32:44;;;;;;;2.73;0.67;;;;;;;12.70;73.34;99707.06;5030066;28;20198;-77
2022/09/17 09:35:26;;;;;;;0.73;0.47;;;;;;;12.84;74.24;99702.00;5031942;28;20294;-76
2022/09/17 09:38:20;;;;;;;3.00;1.37;;;;;;;13.13;71.72;99694.66;5037991;28;20171;-77
2022/09/17 09:40:57;;;;;;;1.30;0.87;;;;;;;13.15;71.26;99706.88;5040203;28;20195;-76
2022/09/17 09:43:39;;;;;;;0.27;0.13;;;;;;;13.10;72.03;99702.44;5050588;28;20186;-77
2022/09/17 09:46:42;;;;;;;14.10;1.83;;;;;;;13.03;70.35;99695.94;5049961;28;20579;-76
2022/09/17 09:49:36;;;;;;;2.87;0.93;;;;;;;13.23;70.51;99691.47;5049188;28;20685;-76
2022/09/17 09:52:14;;;;;;;0.27;0.27;;;;;;;13.35;68.81;99694.16;5038953;28;20199;-76
2022/09/17 09:54:45;;;;;;;7.63;0.93;;;;;;;13.62;67.71;99704.38;5034288;28;20192;-77
2022/09/17 09:57:17;;;;;;;5.70;1.30;;;;;;;13.41;66.12;99701.00;5070412;28;20179;-76
2022/09/17 09:59:42;;;;;;;7.60;0.40;;;;;;;13.24;66.27;99702.09;5070697;28;20189;-77
2022/09/17 10:02:09;;;;;;;0.10;0.10;;;;;;;13.47;67.66;99709.81;5069832;28;20170;-76
2022/09/17 10:04:34;;;;;;;0.60;0.33;;;;;;;13.45;67.24;99712.88;5070181;28;20194;-76
2022/09/17 10:07:08;;;;;;;0.20;0.20;;;;;;;13.42;66.78;99712.78;5073578;28;20227;-77
2022/09/17 10:09:36;;;;;;;0.20;0.00;;;;;;;13.35;66.35;99711.44;5059707;28;20186;-77
2022/09/17 10:12:21;;;;;;;1.83;0.20;;;;;;;13.35;65.72;99705.16;5053631;28;20189;-76
2022/09/17 10:14:46;;;;;;;7.63;0.40;;;;;;;13.45;66.82;99718.34;5056831;28;20682;-77
2022/09/17 10:17:19;;;;;;;0.00;0.00;;;;;;;13.48;66.27;99712.19;5073407;28;20185;-77
2022/09/17 10:20:09;;;;;;;1.13;0.70;;;;;;;13.58;63.29;99713.63;5073589;28;20262;-77
2022/09/17 10:22:40;;;;;;;0.93;0.70;;;;;;;13.56;60.21;99727.69;5061464;28;20190;-77
2022/09/17 10:25:31;;;;;;;1.90;0.30;;;;;;;13.81;61.11;99724.88;5073801;28;20170;-77
2022/09/17 10:28:00;;;;;;;0.00;0.00;;;;;;;13.86;61.42;99727.34;5073453;28;20161;-77
2022/09/17 10:30:26;;;;;;;2.30;1.07;;;;;;;13.70;60.13;99719.88;5073815;28;20174;-77
2022/09/17 10:33:18;;;;;;;6.30;0.53;;;;;;;13.61;59.38;99734.91;5073270;28;20171;-76
2022/09/17 10:36:05;;;;;;;7.93;0.67;;;;;;;13.69;60.03;99732.00;5031832;28;20179;-78
2022/09/17 10:38:35;;;;;;;4.93;0.77;;;;;;;13.83;58.42;99737.09;5032977;28;20178;-79
2022/09/17 10:41:18;;;;;;;5.83;0.77;;;;;;;13.82;59.26;99726.47;5032733;28;20183;-77
2022/09/17 10:43:43;;;;;;;0.23;0.23;;;;;;;13.72;60.07;99729.69;5031741;28;20176;-77
2022/09/17 10:46:13;;;;;;;3.20;1.10;;;;;;;13.77;61.92;99723.97;5032450;28;20505;-77
2022/09/17 10:48:43;;;;;;;0.20;0.20;;;;;;;13.85;60.31;99712.81;5032872;28;20176;-80
2022/09/17 10:51:09;;;;;;;0.00;0.00;;;;;;;13.94;60.37;99718.97;5033125;28;20203;-75
2022/09/17 10:54:01;;;;;;;2.00;1.13;;;;;;;13.92;60.18;99723.22;5032647;28;20723;-75
2022/09/17 10:56:39;;;;;;;1.87;0.87;;;;;;;14.20;61.87;99710.22;5032515;28;20179;-75
2022/09/17 10:59:36;;;;;;;0.90;0.47;;;;;;;14.06;60.53;99707.09;5032574;28;20171;-75
2022/09/17 11:02:35;;;;;;;1.83;0.67;;;;;;;14.08;61.40;99707.56;5030825;28;20175;-75
2022/09/17 11:05:29;;;;;;;8.70;0.67;;;;;;;14.13;61.06;99698.25;5032698;28;20219;-75
2022/09/17 11:08:16;;;;;;;2.03;0.17;;;;;;;13.95;60.96;99700.53;5021851;28;20238;-74
2022/09/17 11:10:44;;;;;;;0.87;0.83;;;;;;;13.86;56.38;99689.69;5032446;28;20176;-75
2022/09/17 11:13:35;;;;;;;0.10;0.10;;;;;;;14.25;55.43;99689.94;5054023;28;20175;-75
2022/09/17 11:16:19;;;;;;;5.30;0.87;;;;;;;14.48;55.21;99687.38;5047324;28;20175;-75
2022/09/17 11:18:53;;;;;;;0.10;0.10;;;;;;;14.41;55.90;99689.91;5036484;28;20323;-75
2022/09/17 11:21:47;;;;;;;2.53;0.10;;;;;;;14.40;57.16;99691.88;5072265;28;20174;-75
2022/09/17 11:24:34;;;;;;;10.10;1.13;;;;;;;14.50;58.43;99687.81;5072165;28;20189;-75
2022/09/17 11:27:04;;;;;;;0.00;0.00;;;;;;;14.64;58.00;99682.66;5053879;28;20178;-75
2022/09/17 11:29:48;;;;;;;0.00;0.00;;;;;;;14.53;56.43;99687.09;5071972;28;20174;-75
2022/09/17 11:32:22;;;;;;;5.67;1.40;;;;;;;14.38;57.32;99672.19;5072175;28;20171;-76
2022/09/17 11:35:07;;;;;;;1.07;0.53;;;;;;;14.37;58.77;99673.34;5071652;28;20206;-74
2022/09/17 11:37:39;;;;;;;4.70;0.20;;;;;;;14.41;57.31;99678.94;5069202;28;20171;-75
2022/09/17 11:40:07;;;;;;;3.00;0.53;;;;;;;14.57;57.37;99669.53;5050860;28;20693;-75
2022/09/17 11:42:39;;;;;;;0.10;0.10;;;;;;;14.49;56.82;99678.00;5051960;28;20167;-74
2022/09/17 11:45:12;;;;;;;0.97;0.37;;;;;;;14.59;56.57;99674.66;5051770;28;20203;-75
2022/09/17 11:47:48;;;;;;;12.53;0.60;;;;;;;14.37;56.20;99667.06;5051210;28;20677;-80
2022/09/17 11:50:21;;;;;;;0.37;0.33;;;;;;;14.18;56.40;99681.53;5058585;28;20174;-79